createdAt,value
2019-03-17T04:47:31.329Z,4.00
2019-03-17T04:50:01.650Z,5.97
2019-03-17T04:52:31.986Z,3.87
2019-03-17T04:55:02.279Z,3.77
2019-03-17T04:57:32.612Z,3.60
2019-03-17T05:00:02.922Z,3.97
2019-03-17T05:02:33.329Z,4.57
2019-03-17T05:05:03.624Z,4.30
2019-03-17T05:07:33.950Z,3.57
2019-03-17T05:10:04.538Z,3.67
2019-03-17T05:12:34.852Z,3.43
2019-03-17T05:15:05.521Z,3.40
2019-03-17T05:17:35.915Z,6.50
2019-03-17T05:20:06.374Z,3.27
2019-03-17T05:22:36.693Z,4.07
2019-03-17T05:25:07.378Z,3.23
2019-03-17T05:27:37.781Z,4.23
2019-03-17T05:30:08.422Z,4.63
2019-03-17T05:32:39.864Z,6.30
2019-03-17T05:35:10.253Z,3.13
2019-03-17T05:37:40.585Z,4.23
2019-03-17T05:40:10.940Z,4.60
2019-03-17T05:42:41.367Z,4.60
2019-03-17T05:45:12.600Z,4.40
2019-03-17T05:47:42.925Z,5.77
2019-03-17T05:50:13.373Z,4.23
2019-03-17T05:52:43.714Z,3.97
2019-03-17T05:55:13.992Z,4.57
2019-03-17T05:57:44.343Z,3.03
2019-03-17T06:00:15.548Z,5.03
2019-03-17T06:02:45.890Z,6.90
2019-03-17T06:05:17.192Z,5.73
2019-03-17T06:07:48.837Z,3.40
2019-03-17T06:10:20.031Z,5.30
2019-03-17T06:12:50.649Z,2.57
2019-03-17T06:15:20.931Z,4.10
2019-03-17T06:17:51.291Z,5.00
2019-03-17T06:20:25.994Z,3.97
2019-03-17T06:22:57.037Z,6.03
2019-03-17T06:25:28.163Z,4.67
2019-03-17T06:27:59.625Z,3.70
2019-03-17T06:30:35.076Z,3.47
2019-03-17T06:33:05.914Z,6.17
2019-03-17T06:35:38.810Z,5.90
2019-03-17T06:38:10.406Z,14.07
2019-03-17T06:40:40.861Z,12.50
2019-03-17T06:43:11.496Z,8.40
2019-03-17T06:45:42.259Z,5.30
2019-03-17T06:48:12.931Z,9.53
2019-03-17T06:50:43.415Z,10.50
2019-03-17T06:53:13.937Z,13.90
2019-03-17T06:55:45.250Z,10.97
2019-03-17T06:58:15.568Z,9.27
2019-03-17T07:00:48.641Z,8.47
2019-03-17T07:03:19.125Z,4.37
2019-03-17T07:05:49.605Z,4.40
2019-03-17T07:08:20.220Z,5.47
2019-03-17T07:10:56.838Z,5.43
2019-03-17T07:13:31.495Z,4.97
2019-03-17T07:16:04.623Z,6.80
2019-03-17T07:18:43.654Z,8.47
2019-03-17T07:21:14.301Z,11.03
2019-03-17T07:23:44.821Z,7.03
2019-03-17T07:26:15.337Z,9.30
2019-03-17T07:28:46.989Z,12.00
2019-03-17T07:31:21.839Z,7.60
2019-03-17T07:33:52.803Z,7.60
2019-03-17T07:36:24.885Z,9.53
2019-03-17T07:38:56.643Z,12.93
2019-03-17T07:41:29.063Z,10.30
2019-03-17T07:44:02.646Z,13.93
2019-03-17T07:46:33.629Z,8.60
2019-03-17T07:49:06.100Z,10.00
2019-03-17T07:51:38.389Z,10.63
2019-03-17T07:54:10.819Z,13.27
2019-03-17T07:56:43.404Z,11.43
2019-03-17T07:59:25.403Z,14.87
2019-03-17T08:01:56.731Z,10.07
2019-03-17T08:04:27.399Z,10.40
2019-03-17T08:06:58.622Z,9.37
2019-03-17T08:09:29.550Z,10.87
2019-03-17T08:12:00.940Z,10.43
2019-03-17T08:14:34.013Z,10.53
2019-03-17T08:17:08.684Z,9.73
2019-03-17T08:19:43.627Z,9.27
2019-03-17T08:22:15.361Z,8.33
2019-03-17T08:24:47.064Z,10.63
2019-03-17T08:27:17.572Z,9.47
2019-03-17T08:29:49.714Z,13.77
2019-03-17T08:32:21.912Z,10.43
2019-03-17T08:34:52.820Z,11.83
2019-03-17T08:37:25.360Z,8.67
2019-03-17T08:39:56.979Z,7.93
2019-03-17T08:42:28.889Z,7.30
2019-03-17T08:44:59.914Z,6.40
2019-03-17T08:47:32.794Z,7.73
2019-03-17T08:50:09.120Z,8.77
2019-03-17T08:52:40.701Z,8.17
2019-03-17T08:55:12.104Z,6.73
2019-03-17T08:57:42.598Z,6.63
2019-03-17T09:00:13.754Z,5.87
2019-03-17T09:02:44.948Z,7.67
2019-03-17T09:05:15.612Z,8.33
2019-03-17T09:07:47.187Z,6.03
2019-03-17T09:10:19.119Z,7.93
2019-03-17T09:12:50.794Z,11.30
2019-03-17T09:15:21.801Z,11.50
2019-03-17T09:17:54.866Z,5.43
2019-03-17T09:20:26.427Z,4.67
2019-03-17T09:22:59.416Z,9.43
2019-03-17T09:25:30.867Z,7.70
2019-03-17T09:28:01.823Z,11.63
2019-03-17T09:30:33.217Z,8.33
2019-03-17T09:33:03.909Z,6.77
2019-03-17T09:35:34.391Z,9.20
2019-03-17T09:38:06.109Z,7.27
2019-03-17T09:40:37.865Z,11.50
2019-03-17T09:43:09.910Z,8.43
2019-03-17T09:45:44.800Z,6.77
2019-03-17T09:48:15.545Z,8.20
2019-03-17T09:50:47.245Z,5.27
2019-03-17T09:53:23.518Z,8.83
2019-03-17T09:55:55.613Z,8.07
2019-03-17T09:58:27.760Z,8.90
2019-03-17T10:01:01.715Z,10.37
2019-03-17T10:03:36.911Z,7.53
2019-03-17T10:06:10.751Z,8.20
2019-03-17T10:08:41.716Z,7.83
2019-03-17T10:11:12.374Z,6.00
2019-03-17T10:13:44.117Z,4.20
2019-03-17T10:16:15.226Z,5.00
2019-03-17T10:18:47.200Z,7.23
2019-03-17T10:21:18.938Z,5.83
2019-03-17T10:23:52.759Z,5.50
2019-03-17T10:26:23.323Z,4.30
2019-03-17T10:29:00.775Z,5.37
2019-03-17T10:31:33.022Z,4.03
2019-03-17T10:34:03.473Z,4.27
2019-03-17T10:36:33.776Z,6.27
2019-03-17T10:39:12.489Z,5.60
2019-03-17T10:41:38.636Z,4.73
2019-03-17T10:44:08.948Z,4.83
2019-03-17T10:46:39.317Z,5.37
2019-03-17T10:49:09.641Z,9.10
2019-03-17T10:51:39.989Z,5.27
2019-03-17T10:54:11.319Z,5.70
2019-03-17T10:56:41.775Z,4.83
2019-03-17T10:59:12.442Z,6.07
2019-03-17T11:01:45.234Z,3.13
2019-03-17T11:04:15.668Z,4.03
2019-03-17T11:06:48.110Z,2.40
2019-03-17T11:09:25.625Z,1.63
2019-03-17T11:11:56.653Z,1.27
2019-03-17T11:14:29.724Z,1.80
2019-03-17T11:17:02.160Z,1.07
2019-03-17T11:19:35.273Z,5.00
2019-03-17T11:22:20.956Z,2.43
2019-03-17T11:24:53.928Z,1.60
2019-03-17T11:27:25.105Z,0.73
2019-03-17T11:29:56.010Z,1.37
2019-03-17T11:32:32.884Z,1.37
2019-03-17T11:35:08.427Z,2.03
2019-03-17T11:37:39.152Z,1.10
2019-03-17T11:40:11.418Z,0.70
2019-03-17T11:42:49.331Z,1.70
2019-03-17T11:45:19.272Z,1.00
2019-03-17T11:47:54.683Z,0.50
2019-03-17T11:50:26.008Z,0.97
2019-03-17T11:52:56.871Z,1.43
2019-03-17T11:55:31.739Z,0.70
2019-03-17T11:58:01.574Z,3.07
2019-03-17T12:00:34.017Z,1.50
2019-03-17T12:03:05.983Z,3.83
2019-03-17T12:05:38.045Z,3.00
2019-03-17T12:08:10.032Z,13.43
2019-03-17T12:10:40.597Z,3.23
2019-03-17T12:13:11.084Z,1.07
2019-03-17T12:15:41.338Z,3.97
2019-03-17T12:18:12.816Z,2.23
2019-03-17T12:20:43.294Z,2.33
2019-03-17T12:23:13.627Z,2.60
2019-03-17T12:25:44.050Z,1.73
2019-03-17T12:28:14.495Z,3.80
2019-03-17T12:30:44.915Z,2.07
2019-03-17T12:33:15.974Z,2.00
2019-03-17T12:35:46.394Z,4.33
2019-03-17T12:38:18.225Z,3.77
2019-03-17T12:40:52.027Z,5.70
2019-03-17T12:43:22.500Z,4.67
2019-03-17T12:45:52.829Z,5.93
2019-03-17T12:48:23.516Z,2.50
2019-03-17T12:50:54.256Z,2.10
2019-03-17T12:53:24.610Z,2.10
2019-03-17T12:55:54.994Z,1.87
2019-03-17T12:58:26.458Z,3.57
2019-03-17T13:01:00.178Z,1.93
2019-03-17T13:03:31.224Z,1.67
2019-03-17T13:06:04.451Z,1.83
2019-03-17T13:08:34.792Z,3.33
2019-03-17T13:11:05.420Z,2.80
2019-03-17T13:13:35.926Z,4.20
2019-03-17T13:16:06.322Z,1.33
2019-03-17T13:18:36.710Z,1.47
2019-03-17T13:21:09.335Z,1.37
2019-03-17T13:23:40.909Z,2.73
2019-03-17T13:26:11.749Z,1.50
2019-03-17T13:28:43.348Z,2.20
2019-03-17T13:31:13.714Z,3.80
2019-03-17T13:33:44.430Z,2.97
2019-03-17T13:36:14.961Z,4.43
2019-03-17T13:38:45.335Z,1.30
2019-03-17T13:41:15.666Z,2.00
2019-03-17T13:43:46.045Z,2.90
2019-03-17T13:46:16.414Z,1.83
2019-03-17T13:48:47.275Z,1.97
2019-03-17T13:51:17.682Z,2.00
2019-03-17T13:53:48.022Z,2.10
2019-03-17T13:56:18.374Z,3.00
2019-03-17T13:58:48.728Z,2.13
2019-03-17T14:01:19.668Z,4.70
2019-03-17T14:03:50.288Z,2.07
2019-03-17T14:06:20.683Z,1.70
2019-03-17T14:08:50.975Z,2.00
2019-03-17T14:11:23.789Z,2.30
2019-03-17T14:13:54.828Z,3.67
2019-03-17T14:16:25.365Z,1.40
2019-03-17T14:18:55.837Z,2.67
2019-03-17T14:21:26.277Z,2.97
2019-03-17T14:23:56.768Z,4.17
2019-03-17T14:26:27.255Z,2.40
2019-03-17T14:28:57.622Z,2.00
2019-03-17T14:31:27.941Z,2.93
2019-03-17T14:33:58.238Z,3.23
2019-03-17T14:36:28.644Z,1.40
2019-03-17T14:39:00.007Z,2.67
2019-03-17T14:41:30.304Z,2.47
2019-03-17T14:44:01.020Z,2.93
2019-03-17T14:46:31.625Z,7.63
2019-03-17T14:49:02.053Z,1.80
2019-03-17T14:51:36.689Z,2.70
2019-03-17T14:54:08.546Z,2.67
2019-03-17T14:56:39.868Z,6.60
2019-03-17T14:59:12.692Z,8.60
2019-03-17T15:01:44.284Z,19.33
2019-03-17T15:04:14.952Z,3.33
2019-03-17T15:06:45.736Z,5.67
2019-03-17T15:09:16.222Z,2.73
2019-03-17T15:11:46.746Z,2.70
2019-03-17T15:14:17.525Z,3.90
2019-03-17T15:16:48.187Z,2.37
2019-03-17T15:19:19.919Z,1.83
2019-03-17T15:21:50.521Z,1.70
2019-03-17T15:24:21.028Z,1.53
2019-03-17T15:26:51.439Z,2.40
2019-03-17T15:29:21.822Z,0.87
2019-03-17T15:31:52.367Z,2.00
2019-03-17T15:34:22.758Z,4.67
2019-03-17T15:36:53.154Z,1.70
2019-03-17T15:39:23.787Z,2.27
2019-03-17T15:41:54.295Z,2.67
2019-03-17T15:44:24.673Z,2.50
2019-03-17T15:46:55.914Z,2.57
2019-03-17T15:49:26.416Z,2.20
2019-03-17T15:51:57.986Z,2.87
2019-03-17T15:54:28.464Z,3.80
2019-03-17T15:56:58.889Z,1.93
2019-03-17T15:59:29.365Z,2.00
2019-03-17T16:02:00.046Z,2.00
2019-03-17T16:04:30.607Z,4.33
2019-03-17T16:07:01.098Z,0.90
2019-03-17T16:09:34.789Z,0.80
2019-03-17T16:12:05.148Z,1.90
2019-03-17T16:14:35.610Z,1.27
2019-03-17T16:17:06.634Z,2.80
2019-03-17T16:19:37.928Z,0.87
2019-03-17T16:22:08.486Z,2.27
2019-03-17T16:24:39.606Z,3.77
2019-03-17T16:27:10.093Z,1.97
2019-03-17T16:29:40.929Z,2.40
2019-03-17T16:32:15.221Z,1.60
2019-03-17T16:34:45.602Z,4.40
2019-03-17T16:37:16.297Z,3.80
2019-03-17T16:39:46.632Z,1.77
2019-03-17T16:42:17.591Z,2.57
2019-03-17T16:44:48.682Z,5.97
2019-03-17T16:47:19.733Z,2.30
2019-03-17T16:49:50.432Z,1.40
2019-03-17T16:52:21.784Z,0.50
2019-03-17T16:54:52.781Z,1.27
2019-03-17T16:57:23.181Z,1.43
2019-03-17T16:59:54.423Z,0.87
2019-03-17T17:02:24.929Z,1.60
2019-03-17T17:04:55.246Z,0.83
2019-03-17T17:07:25.548Z,1.23
2019-03-17T17:09:55.909Z,1.20
2019-03-17T17:12:26.284Z,1.00
2019-03-17T17:14:56.644Z,0.90
2019-03-17T17:17:26.949Z,2.07
2019-03-17T17:19:57.288Z,1.67
2019-03-17T17:22:27.539Z,2.63
2019-03-17T17:24:57.873Z,3.53
2019-03-17T17:27:28.155Z,3.33
2019-03-17T17:29:58.447Z,2.87
2019-03-17T17:32:28.869Z,5.50
2019-03-17T17:35:01.172Z,4.00
2019-03-17T17:37:32.526Z,3.00
2019-03-17T17:40:03.082Z,2.73
2019-03-17T17:42:33.636Z,3.80
2019-03-17T17:45:04.409Z,3.50
2019-03-17T17:47:34.947Z,0.93
2019-03-17T17:50:08.970Z,1.53
2019-03-17T17:52:40.490Z,0.90
2019-03-17T17:55:11.908Z,2.57
2019-03-17T17:57:43.363Z,1.87
2019-03-17T18:00:17.336Z,1.60
2019-03-17T18:02:48.983Z,1.70
2019-03-17T18:05:53.246Z,1.87
2019-03-17T18:08:24.695Z,3.00
2019-03-17T18:10:56.370Z,2.00
2019-03-17T18:13:26.773Z,2.03
2019-03-17T18:15:57.192Z,3.00
2019-03-17T18:18:28.726Z,1.33
2019-03-17T18:21:00.974Z,2.60
2019-03-17T18:23:31.327Z,5.33
2019-03-17T18:26:01.636Z,4.90
2019-03-17T18:28:33.043Z,1.60
2019-03-17T18:31:03.579Z,2.70
2019-03-17T18:33:34.089Z,2.77
2019-03-17T18:36:04.528Z,2.33
2019-03-17T18:38:34.944Z,2.53
2019-03-17T18:41:05.672Z,1.80
2019-03-17T18:43:35.977Z,3.50
2019-03-17T18:46:06.302Z,2.67
2019-03-17T18:48:37.335Z,2.13
2019-03-17T18:51:07.823Z,2.67
2019-03-17T18:53:38.663Z,5.40
2019-03-17T18:56:09.349Z,1.60
2019-03-17T18:58:40.051Z,2.27
2019-03-17T19:01:10.813Z,2.70
2019-03-17T19:03:41.700Z,1.70
2019-03-17T19:06:13.204Z,1.70
2019-03-17T19:08:45.103Z,2.43
2019-03-17T19:11:15.728Z,2.53
2019-03-17T19:13:46.092Z,3.23
2019-03-17T19:16:16.733Z,3.50
2019-03-17T19:18:48.378Z,3.13
2019-03-17T19:21:18.754Z,4.50
2019-03-17T19:23:49.246Z,4.43
2019-03-17T19:26:19.758Z,2.93
2019-03-17T19:28:50.203Z,5.03
2019-03-17T19:31:20.572Z,3.67
2019-03-17T19:33:51.362Z,4.70
2019-03-17T19:36:22.428Z,5.10
2019-03-17T19:38:55.632Z,3.07
2019-03-17T19:41:26.176Z,4.77
2019-03-17T19:43:56.680Z,3.33
2019-03-17T19:46:27.169Z,5.83
2019-03-17T19:49:00.295Z,6.77
2019-03-17T19:51:32.373Z,3.37
2019-03-17T19:54:03.070Z,4.03
2019-03-17T19:56:34.040Z,6.30
2019-03-17T19:59:04.916Z,8.97
2019-03-17T20:01:35.352Z,5.60
2019-03-17T20:04:05.798Z,3.67
2019-03-17T20:06:36.226Z,4.20
2019-03-17T20:09:08.804Z,4.30
2019-03-17T20:11:39.171Z,2.73
2019-03-17T20:14:09.549Z,2.47
2019-03-17T20:16:40.674Z,1.80
2019-03-17T20:19:11.382Z,2.17
2019-03-17T20:21:41.658Z,2.70
2019-03-17T20:24:12.038Z,0.70
2019-03-17T20:26:42.389Z,1.37
2019-03-17T20:29:12.754Z,1.00
2019-03-17T20:31:43.325Z,0.80
2019-03-17T20:34:13.660Z,0.67
2019-03-17T20:36:47.008Z,1.00
2019-03-17T20:39:17.353Z,1.13
2019-03-17T20:41:47.680Z,0.73
2019-03-17T20:44:20.027Z,0.53
2019-03-17T20:46:51.805Z,0.90
2019-03-17T20:49:22.747Z,0.70
2019-03-17T20:51:54.699Z,0.70
2019-03-17T20:54:25.517Z,0.77
2019-03-17T20:56:55.832Z,1.33
2019-03-17T20:59:26.910Z,3.40
2019-03-17T21:02:01.119Z,1.70
2019-03-17T21:04:31.907Z,0.80
2019-03-17T21:07:02.534Z,0.77
2019-03-17T21:09:32.965Z,0.77
2019-03-17T21:12:03.469Z,0.97
2019-03-17T21:14:34.385Z,0.40
2019-03-17T21:17:05.081Z,0.50
2019-03-17T21:19:35.674Z,0.87
2019-03-17T21:22:06.489Z,1.33
2019-03-17T21:24:36.923Z,1.20
2019-03-17T21:27:07.294Z,1.20
2019-03-17T21:29:37.687Z,1.83
2019-03-17T21:32:08.202Z,2.90
2019-03-17T21:34:38.657Z,1.70
2019-03-17T21:37:09.115Z,2.77
2019-03-17T21:39:40.821Z,1.40
2019-03-17T21:42:11.647Z,1.33
2019-03-17T21:44:42.301Z,1.63
2019-03-17T21:47:13.787Z,1.13
2019-03-17T21:49:46.071Z,2.70
2019-03-17T21:52:17.170Z,8.67
